Eltham, United Kingdom
Current Conditions -  °F | °C
As of 9:50 PM on Wednesday 28 Jan 2015 (Local Time) from EGLC Reporting Station
Clear Clear  
Wind Chill: 30°   Ceiling: Unl
Heat Index: 39°   Visibility: 6mi
Dew Point: 28°   Wind: 17mph
Humidity: 65%   Direction: 250°WSW
Pressure: 29.53"   Gusts: NA
Location:  51.45°N, 0.06°E
Report Text: EGLC 282150Z 25015KT CAVOK 04/M02 Q1000
Loading
Personal Weather Stations






























Interactive Weather Map New forecast layout! Learn more

10-Day Weather Forecast

Advertisements
Track Severe Weather on mobile